FMEE/RUN METAR and TAF weather

Enter ICAO airport designator
Station Type Date Time Source
FMEE METAR 2019/02/20 07:30 UTC NOAA

FMEE 200730Z AUTO 08009KT 9999 FEW043/// BKN062/// ///CB 31/26 Q1015 TEMPO 4500 SHRA


Station Type Date Time Source
FMEE Decoded METAR 2019/02/20 07:30 UTC NOAA

Saint-Denis / Gillot, Reunion (FMEE) 20-53S 055-31E 25M
Feb 20, 2019 - 02:30 AM EST / 2019.02.20 0730 UTC
Wind: from the E (080 degrees) at 10 MPH (9 KT):0
Visibility: greater than 7 mile(s):0
Sky conditions: mostly cloudy
Weather: Cumulonimbus clouds observed
Temperature: 87 F (31 C)
Heat index: 99.7 F (37.6 C):1
Dew Point: 78 F (26 C)
Relative Humidity: 74%
Pressure (altimeter): 29.97 in. Hg (1015 hPa)
ob: FMEE 200730Z AUTO 08009KT 9999 FEW043/// BKN062/// ///CB 31/26 Q1015 TEMPO 4500 SHRA
cycle: 7

Station Type Date Time Source
FMEE TAF 2019/02/20 06:18 UTC NOAA

TAF FMEE 200500Z 2006/2112 08012KT 9999 FEW021 SCT450
TEMPO 2006/2012 4500 SHRA SCT026TCU
BECMG 2016/2017 15005KT PROB30
TEMPO 2016/2022 VRB25G35KT 4500 TSRA BKN026CB
BECMG 2105/2107 04010KT


Example: see airport list